sensor_id;sensor_type;location;lat;lon;timestamp;P1;durP1;ratioP1;P2;durP2;ratioP2
59734;SDS011;64362;45.620;4.920;2022-11-20T00:01:13;6.40;;;2.70;;
59734;SDS011;64362;45.620;4.920;2022-11-20T00:03:43;7.35;;;2.47;;
59734;SDS011;64362;45.620;4.920;2022-11-20T00:06:09;11.50;;;2.97;;
59734;SDS011;64362;45.620;4.920;2022-11-20T00:08:36;7.60;;;2.90;;
59734;SDS011;64362;45.620;4.920;2022-11-20T00:11:09;8.60;;;3.25;;
59734;SDS011;64362;45.620;4.920;2022-11-20T00:13:36;7.97;;;2.80;;
59734;SDS011;64362;45.620;4.920;2022-11-20T00:16:04;6.13;;;2.80;;
59734;SDS011;64362;45.620;4.920;2022-11-20T00:18:32;9.63;;;2.70;;
59734;SDS011;64362;45.620;4.920;2022-11-20T00:21:01;8.13;;;3.00;;
59734;SDS011;64362;45.620;4.920;2022-11-20T00:23:35;8.23;;;3.22;;
59734;SDS011;64362;45.620;4.920;2022-11-20T00:26:04;9.45;;;2.78;;
59734;SDS011;64362;45.620;4.920;2022-11-20T00:28:30;6.20;;;2.83;;
59734;SDS011;64362;45.620;4.920;2022-11-20T00:33:28;5.60;;;2.25;;
59734;SDS011;64362;45.620;4.920;2022-11-20T00:35:58;5.45;;;2.70;;
59734;SDS011;64362;45.620;4.920;2022-11-20T00:38:24;8.88;;;3.15;;
59734;SDS011;64362;45.620;4.920;2022-11-20T00:40:54;7.15;;;2.70;;
59734;SDS011;64362;45.620;4.920;2022-11-20T00:43:23;6.68;;;2.65;;
59734;SDS011;64362;45.620;4.920;2022-11-20T00:45:49;8.98;;;2.70;;
59734;SDS011;64362;45.620;4.920;2022-11-20T00:48:15;7.35;;;2.60;;
59734;SDS011;64362;45.620;4.920;2022-11-20T00:50:41;7.03;;;2.53;;
59734;SDS011;64362;45.620;4.920;2022-11-20T00:53:06;8.32;;;2.65;;
59734;SDS011;64362;45.620;4.920;2022-11-20T00:55:32;7.10;;;2.75;;
59734;SDS011;64362;45.620;4.920;2022-11-20T00:57:57;4.63;;;2.70;;
59734;SDS011;64362;45.620;4.920;2022-11-20T01:00:23;6.47;;;2.90;;
59734;SDS011;64362;45.620;4.920;2022-11-20T01:02:48;4.60;;;2.63;;
59734;SDS011;64362;45.620;4.920;2022-11-20T01:05:14;6.50;;;2.70;;
59734;SDS011;64362;45.620;4.920;2022-11-20T01:07:39;4.22;;;2.47;;
59734;SDS011;64362;45.620;4.920;2022-11-20T01:10:05;4.00;;;2.25;;
59734;SDS011;64362;45.620;4.920;2022-11-20T01:12:31;5.93;;;2.58;;
59734;SDS011;64362;45.620;4.920;2022-11-20T01:14:56;6.47;;;2.60;;
59734;SDS011;64362;45.620;4.920;2022-11-20T01:17:21;5.20;;;2.50;;
59734;SDS011;64362;45.620;4.920;2022-11-20T01:19:50;6.82;;;2.55;;
59734;SDS011;64362;45.620;4.920;2022-11-20T01:22:15;6.75;;;2.80;;
59734;SDS011;64362;45.620;4.920;2022-11-20T01:24:41;6.47;;;2.50;;
59734;SDS011;64362;45.620;4.920;2022-11-20T01:27:06;7.10;;;2.63;;
59734;SDS011;64362;45.620;4.920;2022-11-20T01:29:32;6.18;;;2.33;;
59734;SDS011;64362;45.620;4.920;2022-11-20T01:31:57;5.22;;;2.47;;
59734;SDS011;64362;45.620;4.920;2022-11-20T01:34:23;6.60;;;2.70;;
59734;SDS011;64362;45.620;4.920;2022-11-20T01:36:49;7.53;;;2.25;;
59734;SDS011;64362;45.620;4.920;2022-11-20T01:39:16;5.47;;;2.60;;
59734;SDS011;64362;45.620;4.920;2022-11-20T01:41:51;6.53;;;2.72;;
59734;SDS011;64362;45.620;4.920;2022-11-20T01:47:25;5.05;;;3.00;;
59734;SDS011;64362;45.620;4.920;2022-11-20T01:49:56;6.22;;;2.70;;
59734;SDS011;64362;45.620;4.920;2022-11-20T01:52:45;5.85;;;2.60;;
59734;SDS011;64362;45.620;4.920;2022-11-20T01:55:17;5.13;;;2.60;;
59734;SDS011;64362;45.620;4.920;2022-11-20T01:57:45;5.93;;;2.40;;
59734;SDS011;64362;45.620;4.920;2022-11-20T02:00:12;5.63;;;2.58;;
59734;SDS011;64362;45.620;4.920;2022-11-20T02:02:39;4.93;;;2.30;;
59734;SDS011;64362;45.620;4.920;2022-11-20T02:07:54;5.95;;;2.70;;
59734;SDS011;64362;45.620;4.920;2022-11-20T02:10:20;5.90;;;3.15;;
59734;SDS011;64362;45.620;4.920;2022-11-20T02:12:46;6.28;;;2.33;;
59734;SDS011;64362;45.620;4.920;2022-11-20T02:15:37;3.92;;;2.40;;
59734;SDS011;64362;45.620;4.920;2022-11-20T02:18:03;4.82;;;2.60;;
59734;SDS011;64362;45.620;4.920;2022-11-20T02:20:29;5.93;;;2.35;;
59734;SDS011;64362;45.620;4.920;2022-11-20T02:22:56;4.55;;;2.60;;
59734;SDS011;64362;45.620;4.920;2022-11-20T02:25:44;4.72;;;2.95;;
59734;SDS011;64362;45.620;4.920;2022-11-20T02:28:11;4.93;;;2.67;;
59734;SDS011;64362;45.620;4.920;2022-11-20T02:30:36;5.05;;;2.30;;
59734;SDS011;64362;45.620;4.920;2022-11-20T02:33:02;4.13;;;2.83;;
59734;SDS011;64362;45.620;4.920;2022-11-20T02:37:54;5.32;;;2.60;;
59734;SDS011;64362;45.620;4.920;2022-11-20T02:40:20;5.15;;;2.50;;
59734;SDS011;64362;45.620;4.920;2022-11-20T02:42:45;5.00;;;2.80;;
59734;SDS011;64362;45.620;4.920;2022-11-20T02:45:11;5.60;;;2.60;;
59734;SDS011;64362;45.620;4.920;2022-11-20T02:47:36;4.65;;;2.60;;
59734;SDS011;64362;45.620;4.920;2022-11-20T02:50:03;6.15;;;2.80;;
59734;SDS011;64362;45.620;4.920;2022-11-20T02:52:29;3.75;;;2.28;;
59734;SDS011;64362;45.620;4.920;2022-11-20T02:54:55;6.05;;;2.58;;
59734;SDS011;64362;45.620;4.920;2022-11-20T02:57:20;3.90;;;2.33;;
59734;SDS011;64362;45.620;4.920;2022-11-20T02:59:46;4.25;;;2.28;;
59734;SDS011;64362;45.620;4.920;2022-11-20T03:02:11;4.22;;;2.40;;
59734;SDS011;64362;45.620;4.920;2022-11-20T03:04:37;4.90;;;2.55;;
59734;SDS011;64362;45.620;4.920;2022-11-20T03:07:02;4.72;;;2.40;;
59734;SDS011;64362;45.620;4.920;2022-11-20T03:09:28;5.15;;;2.55;;
59734;SDS011;64362;45.620;4.920;2022-11-20T03:11:54;4.32;;;2.60;;
59734;SDS011;64362;45.620;4.920;2022-11-20T03:14:19;3.65;;;2.35;;
59734;SDS011;64362;45.620;4.920;2022-11-20T03:16:45;5.85;;;2.60;;
59734;SDS011;64362;45.620;4.920;2022-11-20T03:19:11;4.10;;;2.45;;
59734;SDS011;64362;45.620;4.920;2022-11-20T03:21:37;4.40;;;2.60;;
59734;SDS011;64362;45.620;4.920;2022-11-20T03:24:02;6.13;;;2.42;;
59734;SDS011;64362;45.620;4.920;2022-11-20T03:26:28;3.55;;;2.33;;
59734;SDS011;64362;45.620;4.920;2022-11-20T03:28:55;4.97;;;2.55;;
59734;SDS011;64362;45.620;4.920;2022-11-20T03:31:23;4.55;;;2.30;;
59734;SDS011;64362;45.620;4.920;2022-11-20T03:33:50;4.85;;;2.30;;
59734;SDS011;64362;45.620;4.920;2022-11-20T03:36:16;3.80;;;2.55;;
59734;SDS011;64362;45.620;4.920;2022-11-20T03:38:43;4.50;;;2.42;;
59734;SDS011;64362;45.620;4.920;2022-11-20T03:41:10;4.60;;;2.33;;
59734;SDS011;64362;45.620;4.920;2022-11-20T03:43:37;4.80;;;2.33;;
59734;SDS011;64362;45.620;4.920;2022-11-20T03:46:03;3.70;;;2.50;;
59734;SDS011;64362;45.620;4.920;2022-11-20T03:48:29;4.28;;;2.20;;
59734;SDS011;64362;45.620;4.920;2022-11-20T03:51:10;4.35;;;2.50;;
59734;SDS011;64362;45.620;4.920;2022-11-20T03:53:38;4.95;;;2.30;;
59734;SDS011;64362;45.620;4.920;2022-11-20T03:56:04;6.63;;;2.80;;
59734;SDS011;64362;45.620;4.920;2022-11-20T03:58:30;3.83;;;2.25;;
59734;SDS011;64362;45.620;4.920;2022-11-20T04:00:56;3.67;;;2.33;;
59734;SDS011;64362;45.620;4.920;2022-11-20T04:03:21;3.83;;;2.50;;
59734;SDS011;64362;45.620;4.920;2022-11-20T04:05:47;4.05;;;2.40;;
59734;SDS011;64362;45.620;4.920;2022-11-20T04:08:12;3.65;;;2.40;;
59734;SDS011;64362;45.620;4.920;2022-11-20T04:10:38;3.78;;;2.35;;
59734;SDS011;64362;45.620;4.920;2022-11-20T04:13:03;3.38;;;2.20;;
59734;SDS011;64362;45.620;4.920;2022-11-20T04:15:29;3.33;;;2.75;;
59734;SDS011;64362;45.620;4.920;2022-11-20T04:17:54;4.85;;;2.80;;
59734;SDS011;64362;45.620;4.920;2022-11-20T04:20:20;2.90;;;2.10;;
59734;SDS011;64362;45.620;4.920;2022-11-20T04:22:46;6.13;;;2.58;;
59734;SDS011;64362;45.620;4.920;2022-11-20T04:25:11;3.45;;;2.53;;
59734;SDS011;64362;45.620;4.920;2022-11-20T04:27:37;4.03;;;2.30;;
59734;SDS011;64362;45.620;4.920;2022-11-20T04:30:02;5.43;;;2.22;;
59734;SDS011;64362;45.620;4.920;2022-11-20T04:32:28;3.45;;;2.45;;
59734;SDS011;64362;45.620;4.920;2022-11-20T04:34:54;4.50;;;2.50;;
59734;SDS011;64362;45.620;4.920;2022-11-20T04:37:19;3.00;;;2.30;;
59734;SDS011;64362;45.620;4.920;2022-11-20T04:39:45;3.35;;;2.40;;
59734;SDS011;64362;45.620;4.920;2022-11-20T04:42:10;3.78;;;2.28;;
59734;SDS011;64362;45.620;4.920;2022-11-20T04:44:54;4.82;;;2.30;;
59734;SDS011;64362;45.620;4.920;2022-11-20T04:47:20;4.45;;;2.40;;
59734;SDS011;64362;45.620;4.920;2022-11-20T04:49:45;3.40;;;2.22;;
59734;SDS011;64362;45.620;4.920;2022-11-20T04:52:11;4.57;;;2.30;;
59734;SDS011;64362;45.620;4.920;2022-11-20T04:54:36;3.95;;;2.10;;
59734;SDS011;64362;45.620;4.920;2022-11-20T04:57:02;4.47;;;2.20;;
59734;SDS011;64362;45.620;4.920;2022-11-20T04:59:27;3.35;;;2.00;;
59734;SDS011;64362;45.620;4.920;2022-11-20T05:01:53;3.50;;;2.20;;
59734;SDS011;64362;45.620;4.920;2022-11-20T05:04:18;4.15;;;2.20;;
59734;SDS011;64362;45.620;4.920;2022-11-20T05:06:44;3.85;;;2.30;;
59734;SDS011;64362;45.620;4.920;2022-11-20T05:09:10;2.80;;;2.10;;
59734;SDS011;64362;45.620;4.920;2022-11-20T05:11:36;3.85;;;2.00;;
59734;SDS011;64362;45.620;4.920;2022-11-20T05:14:02;3.85;;;2.30;;
59734;SDS011;64362;45.620;4.920;2022-11-20T05:16:27;3.75;;;2.00;;
59734;SDS011;64362;45.620;4.920;2022-11-20T05:18:53;3.85;;;2.33;;
59734;SDS011;64362;45.620;4.920;2022-11-20T05:21:19;4.18;;;2.60;;
59734;SDS011;64362;45.620;4.920;2022-11-20T05:23:45;3.65;;;2.65;;
59734;SDS011;64362;45.620;4.920;2022-11-20T05:26:18;3.95;;;2.00;;
59734;SDS011;64362;45.620;4.920;2022-11-20T05:28:46;3.42;;;2.30;;
59734;SDS011;64362;45.620;4.920;2022-11-20T05:31:13;4.30;;;2.35;;
59734;SDS011;64362;45.620;4.920;2022-11-20T05:33:41;4.10;;;2.30;;
59734;SDS011;64362;45.620;4.920;2022-11-20T05:36:08;3.10;;;2.05;;
59734;SDS011;64362;45.620;4.920;2022-11-20T05:38:34;4.45;;;2.15;;
59734;SDS011;64362;45.620;4.920;2022-11-20T05:41:06;4.05;;;2.30;;
59734;SDS011;64362;45.620;4.920;2022-11-20T05:43:33;3.92;;;2.20;;
59734;SDS011;64362;45.620;4.920;2022-11-20T05:45:59;4.50;;;2.40;;
59734;SDS011;64362;45.620;4.920;2022-11-20T05:48:25;3.72;;;1.98;;
59734;SDS011;64362;45.620;4.920;2022-11-20T05:50:51;3.53;;;2.33;;
59734;SDS011;64362;45.620;4.920;2022-11-20T05:53:16;3.72;;;2.30;;
59734;SDS011;64362;45.620;4.920;2022-11-20T05:55:41;2.92;;;2.10;;
59734;SDS011;64362;45.620;4.920;2022-11-20T05:58:07;3.55;;;1.90;;
59734;SDS011;64362;45.620;4.920;2022-11-20T06:00:32;3.58;;;2.00;;
59734;SDS011;64362;45.620;4.920;2022-11-20T06:02:58;3.42;;;2.25;;
59734;SDS011;64362;45.620;4.920;2022-11-20T06:05:23;4.18;;;2.40;;
59734;SDS011;64362;45.620;4.920;2022-11-20T06:07:49;2.70;;;2.10;;
59734;SDS011;64362;45.620;4.920;2022-11-20T06:10:14;3.08;;;2.00;;
59734;SDS011;64362;45.620;4.920;2022-11-20T06:12:40;3.03;;;1.95;;
59734;SDS011;64362;45.620;4.920;2022-11-20T06:15:05;3.20;;;2.03;;
59734;SDS011;64362;45.620;4.920;2022-11-20T06:17:31;3.15;;;2.00;;
59734;SDS011;64362;45.620;4.920;2022-11-20T06:19:57;4.15;;;2.10;;
59734;SDS011;64362;45.620;4.920;2022-11-20T06:22:22;3.95;;;2.33;;
59734;SDS011;64362;45.620;4.920;2022-11-20T06:24:48;3.38;;;1.88;;
59734;SDS011;64362;45.620;4.920;2022-11-20T06:27:13;3.25;;;2.00;;
59734;SDS011;64362;45.620;4.920;2022-11-20T06:29:39;2.85;;;1.70;;
59734;SDS011;64362;45.620;4.920;2022-11-20T06:32:04;4.18;;;2.30;;
59734;SDS011;64362;45.620;4.920;2022-11-20T06:34:30;3.53;;;2.08;;
59734;SDS011;64362;45.620;4.920;2022-11-20T06:36:55;4.88;;;1.85;;
59734;SDS011;64362;45.620;4.920;2022-11-20T06:39:20;3.30;;;1.88;;
59734;SDS011;64362;45.620;4.920;2022-11-20T06:41:46;2.90;;;2.10;;
59734;SDS011;64362;45.620;4.920;2022-11-20T06:44:11;4.65;;;2.15;;
59734;SDS011;64362;45.620;4.920;2022-11-20T06:46:37;5.43;;;2.50;;
59734;SDS011;64362;45.620;4.920;2022-11-20T06:49:02;3.25;;;1.98;;
59734;SDS011;64362;45.620;4.920;2022-11-20T06:51:28;3.10;;;1.90;;
59734;SDS011;64362;45.620;4.920;2022-11-20T06:53:53;2.90;;;2.10;;
59734;SDS011;64362;45.620;4.920;2022-11-20T06:56:19;3.22;;;1.80;;
59734;SDS011;64362;45.620;4.920;2022-11-20T06:58:44;3.53;;;2.13;;
59734;SDS011;64362;45.620;4.920;2022-11-20T07:01:12;3.10;;;1.63;;
59734;SDS011;64362;45.620;4.920;2022-11-20T07:03:38;5.90;;;2.45;;
59734;SDS011;64362;45.620;4.920;2022-11-20T07:06:04;3.05;;;1.73;;
59734;SDS011;64362;45.620;4.920;2022-11-20T07:08:30;4.78;;;1.88;;
59734;SDS011;64362;45.620;4.920;2022-11-20T07:10:57;5.82;;;2.00;;
59734;SDS011;64362;45.620;4.920;2022-11-20T07:13:23;4.50;;;2.20;;
59734;SDS011;64362;45.620;4.920;2022-11-20T07:15:49;4.47;;;2.03;;
59734;SDS011;64362;45.620;4.920;2022-11-20T07:18:14;6.43;;;2.10;;
59734;SDS011;64362;45.620;4.920;2022-11-20T07:20:40;8.65;;;3.60;;
59734;SDS011;64362;45.620;4.920;2022-11-20T07:23:05;5.82;;;2.10;;
59734;SDS011;64362;45.620;4.920;2022-11-20T07:25:30;6.78;;;1.95;;
59734;SDS011;64362;45.620;4.920;2022-11-20T07:27:56;8.20;;;2.17;;
59734;SDS011;64362;45.620;4.920;2022-11-20T07:30:23;6.30;;;2.22;;
59734;SDS011;64362;45.620;4.920;2022-11-20T07:32:52;10.00;;;2.45;;
59734;SDS011;64362;45.620;4.920;2022-11-20T07:35:19;9.73;;;2.60;;
59734;SDS011;64362;45.620;4.920;2022-11-20T07:37:45;6.05;;;1.98;;
59734;SDS011;64362;45.620;4.920;2022-11-20T07:40:11;6.30;;;2.13;;
59734;SDS011;64362;45.620;4.920;2022-11-20T07:42:37;8.35;;;2.33;;
59734;SDS011;64362;45.620;4.920;2022-11-20T07:45:03;11.75;;;2.30;;
59734;SDS011;64362;45.620;4.920;2022-11-20T07:47:32;4.75;;;2.38;;
59734;SDS011;64362;45.620;4.920;2022-11-20T07:50:00;5.32;;;2.15;;
59734;SDS011;64362;45.620;4.920;2022-11-20T07:52:25;7.55;;;2.33;;
59734;SDS011;64362;45.620;4.920;2022-11-20T07:54:51;8.65;;;2.75;;
59734;SDS011;64362;45.620;4.920;2022-11-20T07:57:16;6.68;;;2.30;;
59734;SDS011;64362;45.620;4.920;2022-11-20T07:59:41;5.90;;;2.55;;
59734;SDS011;64362;45.620;4.920;2022-11-20T08:02:09;8.70;;;2.58;;
59734;SDS011;64362;45.620;4.920;2022-11-20T08:04:36;9.10;;;2.97;;
59734;SDS011;64362;45.620;4.920;2022-11-20T08:07:01;6.90;;;2.60;;
59734;SDS011;64362;45.620;4.920;2022-11-20T08:09:27;5.50;;;2.40;;
59734;SDS011;64362;45.620;4.920;2022-11-20T08:11:54;6.75;;;2.50;;
59734;SDS011;64362;45.620;4.920;2022-11-20T08:14:38;10.77;;;3.80;;
59734;SDS011;64362;45.620;4.920;2022-11-20T08:17:04;8.90;;;4.55;;
59734;SDS011;64362;45.620;4.920;2022-11-20T08:19:29;17.83;;;5.72;;
59734;SDS011;64362;45.620;4.920;2022-11-20T08:21:55;19.73;;;7.10;;
59734;SDS011;64362;45.620;4.920;2022-11-20T08:24:20;12.20;;;6.90;;
59734;SDS011;64362;45.620;4.920;2022-11-20T08:26:46;12.90;;;5.65;;
59734;SDS011;64362;45.620;4.920;2022-11-20T08:29:11;11.48;;;5.75;;
59734;SDS011;64362;45.620;4.920;2022-11-20T08:31:37;10.25;;;5.93;;
59734;SDS011;64362;45.620;4.920;2022-11-20T08:34:03;10.57;;;6.22;;
59734;SDS011;64362;45.620;4.920;2022-11-20T08:36:28;10.68;;;6.10;;
59734;SDS011;64362;45.620;4.920;2022-11-20T08:38:54;11.50;;;5.80;;
59734;SDS011;64362;45.620;4.920;2022-11-20T08:41:20;12.48;;;5.20;;
59734;SDS011;64362;45.620;4.920;2022-11-20T08:43:51;12.30;;;5.80;;
59734;SDS011;64362;45.620;4.920;2022-11-20T08:46:37;11.68;;;5.40;;
59734;SDS011;64362;45.620;4.920;2022-11-20T08:49:04;22.50;;;5.80;;
59734;SDS011;64362;45.620;4.920;2022-11-20T08:51:32;25.55;;;6.32;;
59734;SDS011;64362;45.620;4.920;2022-11-20T08:53:58;19.10;;;5.70;;
59734;SDS011;64362;45.620;4.920;2022-11-20T08:56:23;19.95;;;5.50;;
59734;SDS011;64362;45.620;4.920;2022-11-20T08:58:49;24.63;;;6.13;;
59734;SDS011;64362;45.620;4.920;2022-11-20T09:01:16;14.60;;;6.25;;
59734;SDS011;64362;45.620;4.920;2022-11-20T09:03:42;21.73;;;6.78;;
59734;SDS011;64362;45.620;4.920;2022-11-20T09:06:07;21.48;;;6.10;;
59734;SDS011;64362;45.620;4.920;2022-11-20T09:08:33;19.30;;;6.45;;
59734;SDS011;64362;45.620;4.920;2022-11-20T09:10:59;20.23;;;5.95;;
59734;SDS011;64362;45.620;4.920;2022-11-20T09:13:25;20.17;;;6.13;;
59734;SDS011;64362;45.620;4.920;2022-11-20T09:18:38;16.45;;;6.03;;
59734;SDS011;64362;45.620;4.920;2022-11-20T09:21:10;20.50;;;6.38;;
59734;SDS011;64362;45.620;4.920;2022-11-20T09:23:36;14.48;;;5.35;;
59734;SDS011;64362;45.620;4.920;2022-11-20T09:26:06;19.40;;;6.05;;
59734;SDS011;64362;45.620;4.920;2022-11-20T09:28:34;14.07;;;5.53;;
59734;SDS011;64362;45.620;4.920;2022-11-20T09:30:59;19.55;;;6.10;;
59734;SDS011;64362;45.620;4.920;2022-11-20T09:33:25;16.35;;;5.65;;
59734;SDS011;64362;45.620;4.920;2022-11-20T09:35:51;14.38;;;5.80;;
59734;SDS011;64362;45.620;4.920;2022-11-20T09:38:17;16.02;;;5.35;;
59734;SDS011;64362;45.620;4.920;2022-11-20T09:41:04;14.10;;;5.38;;
59734;SDS011;64362;45.620;4.920;2022-11-20T09:44:07;20.55;;;5.40;;
59734;SDS011;64362;45.620;4.920;2022-11-20T09:51:57;18.75;;;5.45;;
59734;SDS011;64362;45.620;4.920;2022-11-20T09:54:37;17.98;;;5.40;;
59734;SDS011;64362;45.620;4.920;2022-11-20T09:57:05;14.95;;;5.32;;
59734;SDS011;64362;45.620;4.920;2022-11-20T10:02:14;13.88;;;5.35;;
59734;SDS011;64362;45.620;4.920;2022-11-20T10:08:34;10.80;;;4.70;;
59734;SDS011;64362;45.620;4.920;2022-11-20T10:18:37;9.55;;;5.68;;
59734;SDS011;64362;45.620;4.920;2022-11-20T10:30:11;12.95;;;4.93;;
59734;SDS011;64362;45.620;4.920;2022-11-20T10:32:39;13.13;;;4.40;;
59734;SDS011;64362;45.620;4.920;2022-11-20T10:37:41;8.73;;;4.30;;
59734;SDS011;64362;45.620;4.920;2022-11-20T10:40:18;15.60;;;4.82;;
59734;SDS011;64362;45.620;4.920;2022-11-20T10:42:49;15.00;;;5.00;;
59734;SDS011;64362;45.620;4.920;2022-11-20T10:47:51;20.73;;;5.03;;
59734;SDS011;64362;45.620;4.920;2022-11-20T10:50:20;32.22;;;6.70;;
59734;SDS011;64362;45.620;4.920;2022-11-20T10:55:33;23.13;;;5.43;;
59734;SDS011;64362;45.620;4.920;2022-11-20T10:58:08;18.08;;;5.03;;
59734;SDS011;64362;45.620;4.920;2022-11-20T11:00:36;13.50;;;4.57;;
59734;SDS011;64362;45.620;4.920;2022-11-20T11:03:01;17.20;;;4.75;;
59734;SDS011;64362;45.620;4.920;2022-11-20T11:08:17;17.88;;;5.05;;
59734;SDS011;64362;45.620;4.920;2022-11-20T11:10:48;20.20;;;4.47;;
59734;SDS011;64362;45.620;4.920;2022-11-20T11:13:21;11.15;;;4.32;;
59734;SDS011;64362;45.620;4.920;2022-11-20T11:15:50;19.88;;;4.72;;
59734;SDS011;64362;45.620;4.920;2022-11-20T11:18:29;15.55;;;4.07;;
59734;SDS011;64362;45.620;4.920;2022-11-20T11:21:03;21.30;;;4.72;;
59734;SDS011;64362;45.620;4.920;2022-11-20T11:23:36;15.98;;;5.22;;
59734;SDS011;64362;45.620;4.920;2022-11-20T11:26:04;23.83;;;5.55;;
59734;SDS011;64362;45.620;4.920;2022-11-20T11:28:31;18.42;;;4.53;;
59734;SDS011;64362;45.620;4.920;2022-11-20T11:30:57;16.83;;;4.63;;
59734;SDS011;64362;45.620;4.920;2022-11-20T11:33:25;18.90;;;4.38;;
59734;SDS011;64362;45.620;4.920;2022-11-20T11:35:52;19.63;;;4.22;;
59734;SDS011;64362;45.620;4.920;2022-11-20T11:40:55;20.48;;;3.90;;
59734;SDS011;64362;45.620;4.920;2022-11-20T11:43:23;16.95;;;4.05;;
59734;SDS011;64362;45.620;4.920;2022-11-20T11:46:20;19.80;;;5.22;;
59734;SDS011;64362;45.620;4.920;2022-11-20T11:49:15;20.05;;;3.90;;
59734;SDS011;64362;45.620;4.920;2022-11-20T11:54:24;15.65;;;3.42;;
59734;SDS011;64362;45.620;4.920;2022-11-20T11:56:52;14.40;;;3.50;;
59734;SDS011;64362;45.620;4.920;2022-11-20T11:59:26;20.13;;;3.38;;
59734;SDS011;64362;45.620;4.920;2022-11-20T12:01:55;11.95;;;3.20;;
59734;SDS011;64362;45.620;4.920;2022-11-20T12:10:13;8.90;;;2.72;;
59734;SDS011;64362;45.620;4.920;2022-11-20T12:12:42;15.00;;;3.58;;
59734;SDS011;64362;45.620;4.920;2022-11-20T12:15:11;13.15;;;2.83;;
59734;SDS011;64362;45.620;4.920;2022-11-20T12:17:38;10.95;;;2.80;;
59734;SDS011;64362;45.620;4.920;2022-11-20T12:20:05;11.52;;;2.90;;
59734;SDS011;64362;45.620;4.920;2022-11-20T12:22:53;15.05;;;3.25;;
59734;SDS011;64362;45.620;4.920;2022-11-20T12:25:30;12.93;;;2.50;;
59734;SDS011;64362;45.620;4.920;2022-11-20T12:30:33;11.60;;;3.10;;
59734;SDS011;64362;45.620;4.920;2022-11-20T12:35:47;11.07;;;3.15;;
59734;SDS011;64362;45.620;4.920;2022-11-20T12:50:10;8.15;;;1.95;;
59734;SDS011;64362;45.620;4.920;2022-11-20T12:52:49;5.45;;;2.50;;
59734;SDS011;64362;45.620;4.920;2022-11-20T12:55:23;8.95;;;2.47;;
59734;SDS011;64362;45.620;4.920;2022-11-20T12:58:02;6.82;;;2.13;;
59734;SDS011;64362;45.620;4.920;2022-11-20T13:00:34;7.22;;;2.40;;
59734;SDS011;64362;45.620;4.920;2022-11-20T13:09:01;7.07;;;2.20;;
59734;SDS011;64362;45.620;4.920;2022-11-20T13:11:24;9.43;;;2.08;;
59734;SDS011;64362;45.620;4.920;2022-11-20T13:19:05;7.32;;;2.40;;
59734;SDS011;64362;45.620;4.920;2022-11-20T13:21:36;5.20;;;2.20;;
59734;SDS011;64362;45.620;4.920;2022-11-20T13:24:05;4.18;;;1.60;;
59734;SDS011;64362;45.620;4.920;2022-11-20T13:29:40;5.25;;;1.63;;
59734;SDS011;64362;45.620;4.920;2022-11-20T13:32:16;5.57;;;2.08;;
59734;SDS011;64362;45.620;4.920;2022-11-20T13:34:53;5.75;;;1.67;;
59734;SDS011;64362;45.620;4.920;2022-11-20T13:37:38;5.50;;;1.50;;
59734;SDS011;64362;45.620;4.920;2022-11-20T13:42:37;5.93;;;1.80;;
59734;SDS011;64362;45.620;4.920;2022-11-20T13:45:08;6.57;;;1.80;;
59734;SDS011;64362;45.620;4.920;2022-11-20T13:47:55;6.53;;;1.60;;
59734;SDS011;64362;45.620;4.920;2022-11-20T13:50:30;5.55;;;1.40;;
59734;SDS011;64362;45.620;4.920;2022-11-20T13:55:54;4.25;;;1.58;;
59734;SDS011;64362;45.620;4.920;2022-11-20T14:01:06;5.85;;;1.90;;
59734;SDS011;64362;45.620;4.920;2022-11-20T14:03:34;5.43;;;1.70;;
59734;SDS011;64362;45.620;4.920;2022-11-20T14:06:04;4.88;;;1.52;;
59734;SDS011;64362;45.620;4.920;2022-11-20T14:08:36;5.25;;;1.88;;
59734;SDS011;64362;45.620;4.920;2022-11-20T14:11:13;5.10;;;1.80;;
59734;SDS011;64362;45.620;4.920;2022-11-20T14:13:52;5.43;;;1.77;;
59734;SDS011;64362;45.620;4.920;2022-11-20T14:16:37;5.55;;;1.67;;
59734;SDS011;64362;45.620;4.920;2022-11-20T14:22:28;8.77;;;2.03;;
59734;SDS011;64362;45.620;4.920;2022-11-20T14:24:43;4.53;;;1.63;;
59734;SDS011;64362;45.620;4.920;2022-11-20T14:27:13;2.85;;;1.38;;
59734;SDS011;64362;45.620;4.920;2022-11-20T14:29:40;5.43;;;1.98;;
59734;SDS011;64362;45.620;4.920;2022-11-20T14:32:07;6.22;;;2.33;;
59734;SDS011;64362;45.620;4.920;2022-11-20T14:34:35;5.80;;;1.90;;
59734;SDS011;64362;45.620;4.920;2022-11-20T14:37:04;5.78;;;2.00;;
59734;SDS011;64362;45.620;4.920;2022-11-20T14:39:32;4.85;;;1.80;;
59734;SDS011;64362;45.620;4.920;2022-11-20T14:41:58;5.53;;;1.80;;
59734;SDS011;64362;45.620;4.920;2022-11-20T14:44:31;4.90;;;2.00;;
59734;SDS011;64362;45.620;4.920;2022-11-20T14:46:59;4.80;;;2.10;;
59734;SDS011;64362;45.620;4.920;2022-11-20T14:49:25;5.70;;;2.00;;
59734;SDS011;64362;45.620;4.920;2022-11-20T14:51:58;4.38;;;1.70;;
59734;SDS011;64362;45.620;4.920;2022-11-20T14:54:24;6.25;;;1.48;;
59734;SDS011;64362;45.620;4.920;2022-11-20T14:56:58;3.80;;;1.58;;
59734;SDS011;64362;45.620;4.920;2022-11-20T14:59:31;3.22;;;1.83;;
59734;SDS011;64362;45.620;4.920;2022-11-20T15:02:01;4.03;;;1.50;;
59734;SDS011;64362;45.620;4.920;2022-11-20T15:04:30;3.33;;;1.50;;
59734;SDS011;64362;45.620;4.920;2022-11-20T15:06:58;5.85;;;1.50;;
59734;SDS011;64362;45.620;4.920;2022-11-20T15:09:24;4.68;;;1.73;;
59734;SDS011;64362;45.620;4.920;2022-11-20T15:12:00;6.72;;;1.60;;
59734;SDS011;64362;45.620;4.920;2022-11-20T15:14:27;5.72;;;1.90;;
59734;SDS011;64362;45.620;4.920;2022-11-20T15:16:54;4.50;;;1.50;;
59734;SDS011;64362;45.620;4.920;2022-11-20T15:19:23;5.88;;;1.60;;
59734;SDS011;64362;45.620;4.920;2022-11-20T15:21:49;5.82;;;2.03;;
59734;SDS011;64362;45.620;4.920;2022-11-20T15:24:15;5.82;;;1.92;;
59734;SDS011;64362;45.620;4.920;2022-11-20T15:26:40;8.57;;;1.80;;
59734;SDS011;64362;45.620;4.920;2022-11-20T15:29:09;6.05;;;1.88;;
59734;SDS011;64362;45.620;4.920;2022-11-20T15:31:37;8.02;;;2.15;;
59734;SDS011;64362;45.620;4.920;2022-11-20T15:34:09;9.50;;;2.22;;
59734;SDS011;64362;45.620;4.920;2022-11-20T15:36:36;8.23;;;1.83;;
59734;SDS011;64362;45.620;4.920;2022-11-20T15:39:01;7.25;;;2.03;;
59734;SDS011;64362;45.620;4.920;2022-11-20T15:41:27;8.70;;;1.95;;
59734;SDS011;64362;45.620;4.920;2022-11-20T15:43:53;8.48;;;2.28;;
59734;SDS011;64362;45.620;4.920;2022-11-20T15:46:20;7.78;;;1.85;;
59734;SDS011;64362;45.620;4.920;2022-11-20T15:48:51;7.03;;;1.92;;
59734;SDS011;64362;45.620;4.920;2022-11-20T15:53:57;9.10;;;2.00;;
59734;SDS011;64362;45.620;4.920;2022-11-20T15:56:23;7.82;;;1.75;;
59734;SDS011;64362;45.620;4.920;2022-11-20T15:58:49;8.75;;;1.80;;
59734;SDS011;64362;45.620;4.920;2022-11-20T16:01:16;12.00;;;2.15;;
59734;SDS011;64362;45.620;4.920;2022-11-20T16:03:42;8.25;;;2.45;;
59734;SDS011;64362;45.620;4.920;2022-11-20T16:06:08;10.27;;;2.53;;
59734;SDS011;64362;45.620;4.920;2022-11-20T16:08:34;12.70;;;3.78;;
59734;SDS011;64362;45.620;4.920;2022-11-20T16:10:59;12.93;;;2.58;;
59734;SDS011;64362;45.620;4.920;2022-11-20T16:13:25;15.65;;;3.00;;
59734;SDS011;64362;45.620;4.920;2022-11-20T16:16:19;14.63;;;2.72;;
59734;SDS011;64362;45.620;4.920;2022-11-20T16:18:53;22.95;;;2.92;;
59734;SDS011;64362;45.620;4.920;2022-11-20T16:21:18;15.60;;;2.85;;
59734;SDS011;64362;45.620;4.920;2022-11-20T16:23:44;22.48;;;3.38;;
59734;SDS011;64362;45.620;4.920;2022-11-20T16:26:10;13.50;;;3.30;;
59734;SDS011;64362;45.620;4.920;2022-11-20T16:28:40;23.35;;;3.30;;
59734;SDS011;64362;45.620;4.920;2022-11-20T16:31:14;16.58;;;2.85;;
59734;SDS011;64362;45.620;4.920;2022-11-20T16:33:41;17.67;;;2.78;;
59734;SDS011;64362;45.620;4.920;2022-11-20T16:36:14;20.95;;;3.10;;
59734;SDS011;64362;45.620;4.920;2022-11-20T16:38:40;21.65;;;3.95;;